createdAt,value
2018-01-08T00:01:52.483Z,103080.50
2018-01-08T00:04:20.118Z,103059.31
2018-01-08T00:06:47.882Z,103059.22
2018-01-08T00:09:15.868Z,103062.34
2018-01-08T00:11:43.547Z,103055.86
2018-01-08T00:14:11.222Z,103052.20
2018-01-08T00:16:38.878Z,103050.81
2018-01-08T00:19:06.801Z,103042.98
2018-01-08T00:21:34.444Z,103039.50
2018-01-08T00:24:02.512Z,103039.14
2018-01-08T00:26:30.169Z,103038.84
2018-01-08T00:28:57.841Z,103035.79
2018-01-08T00:31:25.463Z,103038.20
2018-01-08T00:33:53.086Z,103040.34
2018-01-08T00:36:20.740Z,103038.02
2018-01-08T00:38:48.405Z,103033.31
2018-01-08T00:41:16.083Z,103029.23
2018-01-08T00:43:43.710Z,103021.48
2018-01-08T00:46:11.371Z,103029.14
2018-01-08T00:48:39.250Z,103035.97
2018-01-08T00:51:06.908Z,103018.08
2018-01-08T00:53:34.539Z,103013.69
2018-01-08T00:56:02.183Z,103021.48
2018-01-08T00:58:29.774Z,103021.45
2018-01-08T01:00:57.385Z,103010.19
2018-01-08T01:03:25.272Z,103011.03
2018-01-08T01:05:53.020Z,103009.28
2018-01-08T01:08:20.894Z,103001.96
2018-01-08T01:10:48.566Z,103001.23
2018-01-08T01:13:16.231Z,103007.83
2018-01-08T01:15:43.900Z,102998.45
2018-01-08T01:18:11.664Z,102994.80
2018-01-08T01:20:39.243Z,102992.28
2018-01-08T01:23:06.925Z,102987.00
2018-01-08T01:25:34.593Z,102986.81
2018-01-08T01:28:02.364Z,102992.80
2018-01-08T01:30:30.014Z,102995.73
2018-01-08T01:32:57.668Z,102996.03
2018-01-08T01:35:25.555Z,103006.13
2018-01-08T01:37:53.151Z,103002.23
2018-01-08T01:40:20.803Z,102998.30
2018-01-08T01:42:48.489Z,103002.77
2018-01-08T01:45:16.132Z,103001.27
2018-01-08T01:47:43.760Z,103004.20
2018-01-08T01:50:11.753Z,103000.36
2018-01-08T01:52:39.378Z,103000.20
2018-01-08T01:55:06.957Z,103000.96
2018-01-08T01:57:34.787Z,102997.75
2018-01-08T02:00:02.398Z,102990.20
2018-01-08T02:02:30.124Z,103001.30
2018-01-08T02:04:57.896Z,103000.05
2018-01-08T02:07:25.528Z,102996.73
2018-01-08T02:09:53.154Z,102995.94
2018-01-08T02:12:20.796Z,102992.37
2018-01-08T02:14:48.482Z,103000.54
2018-01-08T02:17:16.469Z,102991.66
2018-01-08T02:19:44.230Z,103001.45
2018-01-08T02:22:11.919Z,102992.89
2018-01-08T02:24:39.852Z,102995.83
2018-01-08T02:27:07.824Z,103004.28
2018-01-08T02:29:35.466Z,103002.92
2018-01-08T02:32:03.151Z,102997.70
2018-01-08T02:34:30.794Z,102999.94
2018-01-08T02:36:58.496Z,103004.70
2018-01-08T02:39:26.135Z,103004.53
2018-01-08T02:41:53.831Z,103007.70
2018-01-08T02:44:21.600Z,102999.78
2018-01-08T02:46:49.221Z,102994.97
2018-01-08T02:49:16.872Z,103006.83
2018-01-08T02:51:44.475Z,103001.62
2018-01-08T02:54:12.234Z,102994.91
2018-01-08T02:56:39.798Z,103002.95
2018-01-08T02:59:07.582Z,103003.13
2018-01-08T03:01:35.192Z,103004.70
2018-01-08T03:04:02.898Z,103012.33
2018-01-08T03:06:30.931Z,103008.33
2018-01-08T03:08:58.636Z,103004.58
2018-01-08T03:11:26.313Z,103009.50
2018-01-08T03:13:53.969Z,103007.17
2018-01-08T03:16:21.591Z,103000.81
2018-01-08T03:18:49.245Z,103003.23
2018-01-08T03:21:17.328Z,102996.00
2018-01-08T03:23:44.985Z,102989.44
2018-01-08T03:26:16.739Z,102991.31
2018-01-08T03:28:44.486Z,102991.05
2018-01-08T03:31:12.469Z,102987.54
2018-01-08T03:33:40.121Z,102987.69
2018-01-08T03:36:07.771Z,102992.70
2018-01-08T03:38:35.467Z,102991.28
2018-01-08T03:41:03.432Z,102989.87
2018-01-08T03:43:31.165Z,102991.38
2018-01-08T03:45:58.847Z,102992.28
2018-01-08T03:48:26.666Z,102993.61
2018-01-08T03:50:54.700Z,102986.45
2018-01-08T03:53:22.373Z,102993.70
2018-01-08T03:55:50.041Z,102990.68
2018-01-08T03:58:17.709Z,102983.88
2018-01-08T04:00:45.648Z,102984.48
2018-01-08T04:03:13.334Z,102980.68
2018-01-08T04:05:40.976Z,102977.23
2018-01-08T04:08:08.606Z,102991.02
2018-01-08T04:10:36.597Z,102989.50
2018-01-08T04:13:04.389Z,102987.30
2018-01-08T04:15:32.034Z,102984.95
2018-01-08T04:18:02.899Z,102986.70
2018-01-08T04:20:30.649Z,102988.87
2018-01-08T04:22:58.339Z,102990.89
2018-01-08T04:25:26.124Z,102991.28
2018-01-08T04:27:53.908Z,102990.23
2018-01-08T04:30:21.631Z,102987.99
2018-01-08T04:32:49.243Z,102981.70
2018-01-08T04:35:16.948Z,102986.70
2018-01-08T04:37:44.667Z,102979.34
2018-01-08T04:40:12.542Z,102980.10
2018-01-08T04:42:40.231Z,102981.49
2018-01-08T04:45:07.882Z,102987.81
2018-01-08T04:47:35.570Z,102990.77
2018-01-08T04:50:03.197Z,102981.77
2018-01-08T04:52:30.873Z,102985.59
2018-01-08T04:54:58.559Z,102984.45
2018-01-08T04:57:30.028Z,102980.70
2018-01-08T04:59:57.768Z,102981.28
2018-01-08T05:02:25.569Z,102978.44
2018-01-08T05:04:54.827Z,102975.48
2018-01-08T05:07:22.977Z,102977.05
2018-01-08T05:09:53.899Z,102973.23
2018-01-08T05:12:23.587Z,102970.16
2018-01-08T05:14:51.233Z,102969.09
2018-01-08T05:17:19.152Z,102976.14
2018-01-08T05:19:46.818Z,102976.72
2018-01-08T05:22:14.539Z,102973.75
2018-01-08T05:24:42.179Z,102987.02
2018-01-08T05:27:09.922Z,102977.71
2018-01-08T05:29:37.564Z,102976.39
2018-01-08T05:32:05.532Z,102977.53
2018-01-08T05:34:33.107Z,102975.94
2018-01-08T05:37:00.750Z,102972.86
2018-01-08T05:39:28.337Z,102973.19
2018-01-08T05:41:55.895Z,102963.70
2018-01-08T05:44:23.499Z,102969.74
2018-01-08T05:46:51.097Z,102959.02
2018-01-08T05:49:18.960Z,102960.89
2018-01-08T05:51:46.589Z,102949.05
2018-01-08T05:54:14.144Z,102941.64
2018-01-08T05:56:41.706Z,102939.98
2018-01-08T05:59:09.616Z,102946.53
2018-01-08T06:01:37.201Z,102947.80
2018-01-08T06:04:04.820Z,102949.80
2018-01-08T06:06:32.385Z,102957.68
2018-01-08T06:09:00.214Z,102961.40
2018-01-08T06:11:28.011Z,102959.46
2018-01-08T06:13:56.007Z,102960.67
2018-01-08T06:16:23.609Z,102953.29
2018-01-08T06:18:51.217Z,102952.45
2018-01-08T06:21:18.900Z,102949.59
2018-01-08T06:23:46.466Z,102950.08
2018-01-08T06:26:14.046Z,102944.06
2018-01-08T06:28:41.854Z,102944.20
2018-01-08T06:31:09.478Z,102944.30
2018-01-08T06:33:37.073Z,102949.86
2018-01-08T06:36:04.743Z,102948.48
2018-01-08T06:38:32.378Z,102951.45
2018-01-08T06:41:00.008Z,102949.22
2018-01-08T06:43:27.579Z,102948.89
2018-01-08T06:45:55.186Z,102949.34
2018-01-08T06:48:22.813Z,102944.10
2018-01-08T06:50:50.429Z,102942.20
2018-01-08T06:53:18.400Z,102955.23
2018-01-08T06:55:46.012Z,102958.66
2018-01-08T06:58:13.616Z,102958.17
2018-01-08T07:00:42.125Z,102947.06
2018-01-08T07:03:09.816Z,102950.28
2018-01-08T07:05:37.417Z,102946.53
2018-01-08T07:08:05.397Z,102945.45
2018-01-08T07:10:33.302Z,102939.41
2018-01-08T07:13:01.220Z,102943.30
2018-01-08T07:15:29.604Z,102941.36
2018-01-08T07:17:57.157Z,102935.73
2018-01-08T07:20:25.134Z,102936.94
2018-01-08T07:22:52.732Z,102937.07
2018-01-08T07:25:20.374Z,102940.59
2018-01-08T07:27:47.938Z,102940.97
2018-01-08T07:30:15.614Z,102942.78
2018-01-08T07:32:43.649Z,102952.14
2018-01-08T07:35:11.236Z,102960.08
2018-01-08T07:37:38.944Z,102958.30
2018-01-08T07:40:06.863Z,102956.16
2018-01-08T07:42:34.683Z,102944.35
2018-01-08T07:45:02.368Z,102947.80
2018-01-08T07:47:30.558Z,102944.69
2018-01-08T07:49:58.223Z,102941.23
2018-01-08T07:52:26.602Z,102936.19
2018-01-08T07:54:54.302Z,102948.55
2018-01-08T07:57:22.014Z,102945.17
2018-01-08T07:59:49.765Z,102937.66
2018-01-08T08:02:17.481Z,102935.91
2018-01-08T08:04:45.172Z,102931.64
2018-01-08T08:07:13.767Z,102942.37
2018-01-08T08:09:42.624Z,102930.06
2018-01-08T08:12:10.334Z,102923.75
2018-01-08T08:14:38.609Z,102927.65
2018-01-08T08:17:06.495Z,102927.80
2018-01-08T08:19:34.380Z,102919.52
2018-01-08T08:22:02.039Z,102910.10
2018-01-08T08:24:29.701Z,102910.25
2018-01-08T08:26:57.397Z,102917.81
2018-01-08T08:29:24.979Z,102908.59
2018-01-08T08:31:52.636Z,102912.88
2018-01-08T08:34:20.379Z,102916.31
2018-01-08T08:36:48.151Z,102908.66
2018-01-08T08:39:16.057Z,102905.80
2018-01-08T08:41:43.723Z,102912.74
2018-01-08T08:44:11.397Z,102911.80
2018-01-08T08:46:39.242Z,102910.12
2018-01-08T08:49:07.056Z,102907.80
2018-01-08T08:51:34.755Z,102910.31
2018-01-08T08:54:02.847Z,102904.08
2018-01-08T08:56:30.448Z,102905.45
2018-01-08T08:58:58.129Z,102901.80
2018-01-08T09:01:25.984Z,102899.95
2018-01-08T09:03:53.558Z,102891.28
2018-01-08T09:06:21.188Z,102887.04
2018-01-08T09:08:48.831Z,102891.17
2018-01-08T09:11:16.431Z,102884.65
2018-01-08T09:13:45.333Z,102886.12
2018-01-08T09:16:12.904Z,102885.64
2018-01-08T09:18:40.558Z,102893.81
2018-01-08T09:21:08.212Z,102886.91
2018-01-08T09:23:36.122Z,102884.94
2018-01-08T09:26:03.804Z,102885.75
2018-01-08T09:28:31.497Z,102879.68
2018-01-08T09:30:59.433Z,102872.92
2018-01-08T09:33:27.411Z,102869.58
2018-01-08T09:35:55.013Z,102877.52
2018-01-08T09:38:22.646Z,102871.17
2018-01-08T09:40:50.325Z,102864.64
2018-01-08T09:43:18.025Z,102862.73
2018-01-08T09:45:45.830Z,102856.75
2018-01-08T09:48:13.435Z,102850.87
2018-01-08T09:50:41.173Z,102848.59
2018-01-08T09:53:08.738Z,102852.03
2018-01-08T09:55:36.670Z,102855.61
2018-01-08T09:58:04.229Z,102845.75
2018-01-08T10:00:31.901Z,102844.09
2018-01-08T10:03:11.578Z,102852.92
2018-01-08T10:05:52.301Z,102844.78
2018-01-08T10:08:31.850Z,102843.83
2018-01-08T10:11:11.443Z,102842.31
2018-01-08T10:13:51.017Z,102844.84
2018-01-08T10:16:30.634Z,102845.28
2018-01-08T10:22:01.284Z,102843.03
2018-01-08T10:24:29.110Z,102846.66
2018-01-08T10:26:56.723Z,102851.89
2018-01-08T10:29:24.468Z,102845.56
2018-01-08T10:31:52.152Z,102851.44
2018-01-08T10:34:19.850Z,102845.08
2018-01-08T10:36:47.720Z,102836.98
2018-01-08T10:39:15.395Z,102834.55
2018-01-08T10:41:48.970Z,102821.53
2018-01-08T10:44:22.103Z,102823.92
2018-01-08T10:46:55.513Z,102826.52
2018-01-08T10:49:28.496Z,102827.17
2018-01-08T10:51:55.577Z,102824.00
2018-01-08T10:54:37.090Z,102815.00
2018-01-08T10:57:04.710Z,102808.55
2018-01-08T10:59:32.357Z,102815.88
2018-01-08T11:02:05.737Z,102797.66
2018-01-08T11:04:33.502Z,102795.20
2018-01-08T11:07:01.238Z,102793.06
2018-01-08T11:09:28.880Z,102788.32
2018-01-08T11:11:56.449Z,102782.06
2018-01-08T11:14:24.103Z,102774.66
2018-01-08T11:16:52.803Z,102780.23
2018-01-08T11:19:20.408Z,102770.39
2018-01-08T11:21:48.036Z,102764.83
2018-01-08T11:24:15.594Z,102774.72
2018-01-08T11:26:43.538Z,102773.56
2018-01-08T11:29:11.297Z,102758.46
2018-01-08T11:31:39.409Z,102762.27
2018-01-08T11:34:07.223Z,102752.27
2018-01-08T11:36:35.226Z,102751.47
2018-01-08T11:39:02.845Z,102742.63
2018-01-08T11:41:30.574Z,102749.11
2018-01-08T11:43:58.213Z,102748.37
2018-01-08T11:46:25.804Z,102726.47
2018-01-08T11:48:53.529Z,102718.55
2018-01-08T11:51:21.110Z,102714.01
2018-01-08T11:53:49.448Z,102709.78
2018-01-08T11:56:17.331Z,102705.97
2018-01-08T11:58:45.619Z,102702.77
2018-01-08T12:01:13.561Z,102701.34
2018-01-08T12:03:41.247Z,102703.59
2018-01-08T12:06:08.865Z,102689.28
2018-01-08T12:08:36.538Z,102682.77
2018-01-08T12:11:04.143Z,102695.87
2018-01-08T12:13:31.815Z,102670.55
2018-01-08T12:16:04.038Z,102672.27
2018-01-08T12:18:31.732Z,102667.53
2018-01-08T12:20:59.342Z,102673.58
2018-01-08T12:23:27.220Z,102666.16
2018-01-08T12:25:55.064Z,102662.95
2018-01-08T12:28:22.671Z,102662.67
2018-01-08T12:30:50.299Z,102661.71
2018-01-08T12:33:18.115Z,102662.45
2018-01-08T12:35:45.786Z,102650.48
2018-01-08T12:38:13.440Z,102647.78
2018-01-08T12:40:41.407Z,102641.30
2018-01-08T12:43:09.482Z,102649.02
2018-01-08T12:45:37.366Z,102641.19
2018-01-08T12:48:05.007Z,102634.86
2018-01-08T12:50:32.975Z,102624.80
2018-01-08T12:53:00.574Z,102631.48
2018-01-08T12:55:28.209Z,102627.25
2018-01-08T12:57:55.853Z,102626.02
2018-01-08T13:00:23.479Z,102621.47
2018-01-08T13:02:51.079Z,102625.38
2018-01-08T13:05:18.661Z,102618.57
2018-01-08T13:07:46.341Z,102618.19
2018-01-08T13:10:13.927Z,102623.30
2018-01-08T13:12:41.788Z,102619.83
2018-01-08T13:15:09.682Z,102610.48
2018-01-08T13:17:37.475Z,102610.66
2018-01-08T13:20:05.114Z,102610.38
2018-01-08T13:22:32.758Z,102602.84
2018-01-08T13:25:00.479Z,102605.87
2018-01-08T13:27:28.424Z,102604.44
2018-01-08T13:29:56.029Z,102592.27
2018-01-08T13:32:23.899Z,102591.66
2018-01-08T13:34:51.503Z,102602.66
2018-01-08T13:37:19.155Z,102587.93
2018-01-08T13:39:46.716Z,102601.11
2018-01-08T13:42:14.348Z,102601.05
2018-01-08T13:44:42.034Z,102588.79
2018-01-08T13:47:09.860Z,102596.28
2018-01-08T13:49:37.430Z,102587.34
2018-01-08T13:52:05.067Z,102586.09
2018-01-08T13:54:33.033Z,102584.73
2018-01-08T13:57:00.673Z,102582.87
2018-01-08T13:59:28.436Z,102579.75
2018-01-08T14:01:56.303Z,102561.86
2018-01-08T14:04:23.913Z,102559.98
2018-01-08T14:06:51.624Z,102554.31
2018-01-08T14:09:19.285Z,102566.28
2018-01-08T14:11:46.947Z,102552.80
2018-01-08T14:14:14.642Z,102567.00
2018-01-08T14:16:42.284Z,102546.69
2018-01-08T14:19:10.263Z,102550.80
2018-01-08T14:21:37.938Z,102558.33
2018-01-08T14:24:08.353Z,102561.11
2018-01-08T14:26:36.244Z,102563.30
2018-01-08T14:29:03.884Z,102557.23
2018-01-08T14:31:31.466Z,102538.46
2018-01-08T14:33:59.106Z,102551.96
2018-01-08T14:36:26.769Z,102550.02
2018-01-08T14:38:54.450Z,102542.37
2018-01-08T14:41:22.014Z,102542.17
2018-01-08T14:43:49.741Z,102545.47
2018-01-08T14:46:17.552Z,102538.00
2018-01-08T14:48:45.129Z,102543.63
2018-01-08T14:51:12.687Z,102543.67
2018-01-08T14:53:40.518Z,102543.80
2018-01-08T14:56:08.146Z,102554.51
2018-01-08T14:58:35.780Z,102544.55
2018-01-08T15:01:03.447Z,102551.35
2018-01-08T15:03:31.258Z,102548.98
2018-01-08T15:05:58.867Z,102561.22
2018-01-08T15:08:26.477Z,102544.05
2018-01-08T15:10:54.054Z,102546.14
2018-01-08T15:13:21.693Z,102551.20
2018-01-08T15:15:49.587Z,102552.09
2018-01-08T15:18:17.179Z,102554.09
2018-01-08T15:20:44.839Z,102554.95
2018-01-08T15:23:12.934Z,102544.23
2018-01-08T15:25:40.538Z,102553.20
2018-01-08T15:28:08.253Z,102544.69
2018-01-08T15:30:35.865Z,102547.55
2018-01-08T15:33:03.767Z,102554.23
2018-01-08T15:35:31.572Z,102556.01
2018-01-08T15:37:59.542Z,102546.73
2018-01-08T15:40:27.942Z,102547.67
2018-01-08T15:42:55.546Z,102538.52
2018-01-08T15:45:23.230Z,102541.63
2018-01-08T15:47:51.214Z,102542.06
2018-01-08T15:50:18.832Z,102541.34
2018-01-08T15:52:46.469Z,102535.91
2018-01-08T15:55:14.119Z,102536.12
2018-01-08T15:57:41.767Z,102543.43
2018-01-08T16:00:09.369Z,102538.46
2018-01-08T16:05:12.690Z,102545.91
2018-01-08T16:07:40.395Z,102530.67
2018-01-08T16:10:08.378Z,102535.83
2018-01-08T16:12:36.116Z,102519.37
2018-01-08T16:15:03.762Z,102519.37
2018-01-08T16:17:31.596Z,102524.11
2018-01-08T16:19:59.257Z,102515.78
2018-01-08T16:22:26.912Z,102513.41
2018-01-08T16:24:54.516Z,102511.56
2018-01-08T16:27:22.388Z,102512.20
2018-01-08T16:29:50.034Z,102505.52
2018-01-08T16:32:19.000Z,102504.89
2018-01-08T16:34:46.721Z,102507.28
2018-01-08T16:37:14.427Z,102515.11
2018-01-08T16:39:42.380Z,102529.59
2018-01-08T16:42:10.313Z,102521.05
2018-01-08T16:44:37.925Z,102522.48
2018-01-08T16:47:05.515Z,102518.80
2018-01-08T16:49:33.149Z,102513.66
2018-01-08T16:52:00.909Z,102515.20
2018-01-08T16:54:28.601Z,102522.59
2018-01-08T16:56:56.359Z,102518.06
2018-01-08T16:59:23.964Z,102516.95
2018-01-08T17:01:51.819Z,102508.11
2018-01-08T17:04:19.518Z,102493.84
2018-01-08T17:06:48.105Z,102501.63
2018-01-08T17:09:15.727Z,102497.63
2018-01-08T17:11:43.836Z,102480.45
2018-01-08T17:14:11.898Z,102493.52
2018-01-08T17:16:39.875Z,102490.01
2018-01-08T17:19:07.631Z,102483.31
2018-01-08T17:21:35.454Z,102487.86
2018-01-08T17:24:03.894Z,102482.30
2018-01-08T17:26:32.109Z,102483.05
2018-01-08T17:28:59.707Z,102479.53
2018-01-08T17:31:30.335Z,102477.17
2018-01-08T17:33:57.992Z,102491.66
2018-01-08T17:36:25.740Z,102480.06
2018-01-08T17:38:53.394Z,102481.39
2018-01-08T17:41:21.413Z,102478.52
2018-01-08T17:43:49.694Z,102468.86
2018-01-08T17:46:17.305Z,102469.98
2018-01-08T17:48:45.241Z,102467.94
2018-01-08T17:51:12.879Z,102464.05
2018-01-08T17:53:40.544Z,102461.67
2018-01-08T17:56:08.134Z,102464.14
2018-01-08T17:58:36.008Z,102463.82
2018-01-08T18:01:03.713Z,102457.94
2018-01-08T18:03:31.344Z,102456.23
2018-01-08T18:05:59.165Z,102449.12
2018-01-08T18:08:26.887Z,102457.14
2018-01-08T18:10:54.576Z,102454.07
2018-01-08T18:13:22.237Z,102451.40
2018-01-08T18:15:49.979Z,102440.59
2018-01-08T18:18:17.622Z,102438.36
2018-01-08T18:20:45.249Z,102436.50
2018-01-08T18:23:13.196Z,102435.89
2018-01-08T18:25:40.889Z,102437.45
2018-01-08T18:28:08.465Z,102422.33
2018-01-08T18:30:36.079Z,102431.06
2018-01-08T18:33:03.715Z,102419.87
2018-01-08T18:35:31.590Z,102419.87
2018-01-08T18:37:59.227Z,102411.34
2018-01-08T18:40:27.249Z,102412.68
2018-01-08T18:42:54.995Z,102404.17
2018-01-08T18:45:22.562Z,102410.75
2018-01-08T18:47:50.542Z,102400.86
2018-01-08T18:50:18.513Z,102406.53
2018-01-08T18:52:46.167Z,102398.00
2018-01-08T18:55:13.971Z,102395.33
2018-01-08T18:57:41.651Z,102398.53
2018-01-08T19:00:09.301Z,102392.64
2018-01-08T19:02:37.228Z,102392.23
2018-01-08T19:05:05.206Z,102398.41
2018-01-08T19:07:33.134Z,102391.95
2018-01-08T19:10:00.732Z,102385.87
2018-01-08T19:12:28.701Z,102390.72
2018-01-08T19:14:56.414Z,102375.91
2018-01-08T19:17:24.256Z,102376.73
2018-01-08T19:19:52.062Z,102379.10
2018-01-08T19:22:20.070Z,102379.84
2018-01-08T19:24:47.661Z,102381.39
2018-01-08T19:27:15.521Z,102376.53
2018-01-08T19:29:43.274Z,102377.66
2018-01-08T19:32:10.996Z,102376.45
2018-01-08T19:34:38.604Z,102378.63
2018-01-08T19:37:06.547Z,102371.53
2018-01-08T19:39:34.158Z,102378.32
2018-01-08T19:42:01.761Z,102374.00
2018-01-08T19:44:29.360Z,102358.80
2018-01-08T19:46:57.012Z,102362.80
2018-01-08T19:49:25.274Z,102356.66
2018-01-08T19:51:52.906Z,102358.78
2018-01-08T19:54:20.516Z,102356.87
2018-01-08T19:56:48.186Z,102362.41
2018-01-08T19:59:15.841Z,102361.89
2018-01-08T20:01:43.421Z,102357.39
2018-01-08T20:04:11.144Z,102350.40
2018-01-08T20:06:39.111Z,102353.27
2018-01-08T20:09:06.782Z,102360.66
2018-01-08T20:11:34.369Z,102353.97
2018-01-08T20:14:02.039Z,102345.66
2018-01-08T20:16:29.689Z,102351.55
2018-01-08T20:18:57.303Z,102349.68
2018-01-08T20:21:24.984Z,102357.70
2018-01-08T20:23:52.563Z,102349.58
2018-01-08T20:26:20.408Z,102343.76
2018-01-08T20:28:48.383Z,102341.48
2018-01-08T20:31:15.974Z,102344.14
2018-01-08T20:33:43.586Z,102338.91
2018-01-08T20:36:11.273Z,102348.25
2018-01-08T20:38:38.876Z,102332.65
2018-01-08T20:41:06.484Z,102332.13
2018-01-08T20:43:34.481Z,102319.22
2018-01-08T20:46:02.086Z,102322.09
2018-01-08T20:48:29.691Z,102313.67
2018-01-08T20:50:57.656Z,102304.22
2018-01-08T20:53:25.274Z,102309.25
2018-01-08T20:55:53.086Z,102292.84
2018-01-08T20:58:21.310Z,102297.05
2018-01-08T21:00:49.013Z,102288.73
2018-01-08T21:03:16.583Z,102285.95
2018-01-08T21:05:44.536Z,102274.47
2018-01-08T21:08:12.399Z,102273.94
2018-01-08T21:10:39.972Z,102257.20
2018-01-08T21:13:07.581Z,102249.13
2018-01-08T21:15:35.597Z,102254.77
2018-01-08T21:18:03.279Z,102255.50
2018-01-08T21:20:30.905Z,102250.14
2018-01-08T21:22:58.583Z,102250.73
2018-01-08T21:25:27.232Z,102249.13
2018-01-08T21:27:54.830Z,102256.52
2018-01-08T21:30:22.805Z,102261.95
2018-01-08T21:32:50.419Z,102263.08
2018-01-08T21:35:18.040Z,102262.06
2018-01-08T21:37:45.901Z,102262.38
2018-01-08T21:40:13.558Z,102249.12
2018-01-08T21:42:41.146Z,102242.47
2018-01-08T21:45:08.892Z,102234.53
2018-01-08T21:47:36.545Z,102225.52
2018-01-08T21:50:04.217Z,102213.50
2018-01-08T21:52:31.805Z,102215.36
2018-01-08T21:54:59.484Z,102191.55
2018-01-08T21:57:27.491Z,102197.00
2018-01-08T21:59:55.071Z,102190.00
2018-01-08T22:02:22.658Z,102190.42
2018-01-08T22:04:50.220Z,102181.88
2018-01-08T22:07:18.204Z,102171.64
2018-01-08T22:09:45.817Z,102167.81
2018-01-08T22:12:13.524Z,102174.67
2018-01-08T22:14:41.316Z,102175.29
2018-01-08T22:17:08.974Z,102164.01
2018-01-08T22:19:36.614Z,102157.97
2018-01-08T22:22:04.244Z,102161.12
2018-01-08T22:24:31.996Z,102161.05
2018-01-08T22:26:59.889Z,102146.27
2018-01-08T22:29:27.504Z,102142.88
2018-01-08T22:31:55.059Z,102150.05
2018-01-08T22:34:22.788Z,102151.09
2018-01-08T22:36:50.408Z,102145.94
2018-01-08T22:39:18.034Z,102125.39
2018-01-08T22:41:45.622Z,102127.66
2018-01-08T22:44:13.253Z,102123.55
2018-01-08T22:46:41.145Z,102128.28
2018-01-08T22:49:08.942Z,102105.72
2018-01-08T22:51:36.568Z,102100.04
2018-01-08T22:54:04.209Z,102106.89
2018-01-08T22:56:31.833Z,102102.91
2018-01-08T22:58:59.449Z,102095.09
2018-01-08T23:01:27.053Z,102095.63
2018-01-08T23:03:54.985Z,102090.20
2018-01-08T23:06:22.588Z,102083.54
2018-01-08T23:08:50.153Z,102085.36
2018-01-08T23:11:17.980Z,102075.14
2018-01-08T23:13:45.599Z,102072.25
2018-01-08T23:16:13.235Z,102072.36
2018-01-08T23:18:40.947Z,102067.42
2018-01-08T23:21:08.503Z,102060.56
2018-01-08T23:23:36.371Z,102050.22
2018-01-08T23:26:04.154Z,102052.05
2018-01-08T23:28:31.756Z,102051.55
2018-01-08T23:30:59.322Z,102047.37
2018-01-08T23:33:27.003Z,102053.31
2018-01-08T23:35:54.631Z,102047.73
2018-01-08T23:38:22.199Z,102051.04
2018-01-08T23:40:50.186Z,102052.50
2018-01-08T23:43:17.804Z,102042.16
2018-01-08T23:45:45.512Z,102036.98
2018-01-08T23:48:13.194Z,102038.54
2018-01-08T23:50:41.194Z,102031.48
2018-01-08T23:53:09.489Z,102029.03
2018-01-08T23:55:37.572Z,102028.41
2018-01-08T23:58:05.582Z,102017.39
